Airfield :
LOGIN :

Register | Disclaimer

   EN    FR    IT 

 










Legend :    VFR   Marginal VFR   IFR   Intensive IFR   Very Intensive IFR
Visi :
Ceiling :
>= 8 km
>= 3000ft
5 to 8 km
1000 to 3000 ft
1500m to 5 km
500 to 1000 ft
800 to 1500m
200 to 500 ft
< 800m
< 200 ft
Symbols :   Thunderstorms  Fog  Heavy snow  Heavy precipitations  Wind > 20 kt
SIGMETs :     Misc.  Thunderstorms  Icing  Turbulence  Mountain Waves  Volcanic Ashes







- Airport Elevation : 290 ft
- IATA code : LAI
- Download approach charts


LFRO - Lannion

CURRENT METAR :
  • 191730Z AUTO 07009KT 030V110 CAVOK 06/02 Q1012 TEMPO SHRA SCT030TCU BECMG 06016G28KT

EXPIRED METARs :
  • 191700Z AUTO 06009KT 020V100 9999 FEW028 06/01 Q1012 TEMPO SHRA SCT030TCU BECMG 06016G28KT
  • 191630Z AUTO 06009KT 020V110 9999 SCT026 06/02 Q1012 TEMPO SHRA SCT030TCU BECMG 06016G28KT
  • 191600Z AUTO 06011KT 010V100 9999 BKN026 BKN032 07/02 Q1012 TEMPO SHRA SCT030TCU BECMG 06016G28KT
  • 191530Z AUTO 06014G24KT 030V090 9999 BKN027 07/01 Q1012 TEMPO SHRA SCT030TCU
  • 191500Z AUTO 06011KT 020V100 9999 BKN029 07/02 Q1012 BECMG 06016G28KT

TAF TAF LFRO
Valid from the 19 at 18:00 until the 20 at 18:00 UTC


191700Z 1918/2018 06010KT 9999 SCT026
PROB30
TEMPO 1918/2018 SHRA SCT020TCU BKN026
No reported NOTAMs for that airfield.



MET'MAP, your aeronautical weather chart ! - Copyright ORBIFLY December 2007 - Disclaimer

ORBIFLY MET'MAP TEAM :

Programming & Development : Alexandra Zaïnal
Concept & Development : Baudouin d'Aumeries
Co-Development & Prog : Marc-Olivier Méhu
Technical & hardware support : Manuel Goepfert

Contact : metmap@orbifly.com




SOURCES & CREDITS :

   NOAA